Terminal Aerodrome Forecast
Issued by NWS Jackson, MS

Home | Current Version | Previous Version | Text Only | Print | Product List | Glossary On
Versions: 1 2 3 4 5 6 7 8 9 10 11 12 13 14 15 16 17 18
025
FTUS44 KMEG 241731
TAFTUP
TAF
KTUP 241731Z 2418/2518 21013G21KT P6SM SCT035
     FM250000 25008KT P6SM VCSH BKN040
      TEMPO 2503/2504 6SM -TSRA BKN040CB
     FM250500 34009KT P6SM SKC
     FM251500 35011G17KT P6SM SKC=

USA.gov is the U.S. government's official web portal to all federal, state and local government web resources and services.